Kezdőlap
METAR-TAF:

METAR-TAF

Repülőterek :

Labuan, Malajzia

földrajzi szélesség: 05-18N, földrajzi hosszúság: 115-15E, magasság: 30 m

Jelenlegi meteorológiai megfigyelések

A jelentés 50 perccel ezelõtt készült, 22:00 UTC
Szélcsend
Hőmérséklet 27°C
Páratartalom 89%
Légköri nyomás 1010 hPa
Látótávolság 10 km, vagy több
Kevés felhő 1400 lábon
Kevés felhő 1700 lábon, Cumulonimbus.

METAR: WBKL 122200Z 00000KT 9999 FEW014 FEW017CB 27/25 Q1010

Idő: 06:50 (22:50 UTC)

Előrejelzés

A jelentés 5 órával és 50 perccel ezelõtt készült, 17:00 UTC
Az előrejelzés 12-én 18 óra UTC és 13-én 18 óra UTC között érvényes
Különbözõ irányokból fújó szél 3 kt
Látótávolság 10 km, vagy több
Kevés felhő 1500 lábon

TAF: WBKL 121700Z 1218/1318 VRB03KT 9999 FEW015

Meteorológiai megfigyelések és előrejelzések több, mint 4000 repülőtéren (METAR és TAF jelentéseket).

A térképen piros és sárga pontok jelzik az elérhető meteorológiai állomásokat.

Mozgassa az egeret a pont fölött, hogy megjelenjen az állomás neve.

Azután kattintson az időjárási megfigyelések és előrejelzések megtekintéséhez.

A térkép megváltoztatása: kattintson a fekete keresztel jelölt zöld gombra ráközelítéshez, a vonallal jelölt zöld gombra távolításhoz, vagy a zöld nyilakra a szomszédos térképek eléréséhez.


METAR-TAF: